createdAt,value
2023-02-27T00:02:13.550Z,0.30
2023-02-27T00:04:44.371Z,0.30
2023-02-27T00:07:15.309Z,0.30
2023-02-27T00:09:46.103Z,0.30
2023-02-27T00:12:19.492Z,0.30
2023-02-27T00:14:51.453Z,0.30
2023-02-27T00:17:25.849Z,0.30
2023-02-27T00:19:58.686Z,0.30
2023-02-27T00:22:29.956Z,0.20
2023-02-27T00:25:00.743Z,0.20
2023-02-27T00:27:34.641Z,0.20
2023-02-27T00:30:05.505Z,0.10
2023-02-27T00:32:37.033Z,0.10
2023-02-27T00:35:08.998Z,0.00
2023-02-27T00:37:40.265Z,0.00
2023-02-27T00:40:12.768Z,0.10
2023-02-27T00:42:49.568Z,0.00
2023-02-27T00:45:21.443Z,0.00
2023-02-27T00:47:52.269Z,0.00
2023-02-27T00:50:23.245Z,0.00
2023-02-27T00:52:54.172Z,0.00
2023-02-27T00:55:27.182Z,0.10
2023-02-27T00:58:03.881Z,0.10
2023-02-27T01:00:34.772Z,0.10
2023-02-27T01:03:05.683Z,0.10
2023-02-27T01:05:36.471Z,0.10
2023-02-27T01:08:08.324Z,0.00
2023-02-27T01:10:40.521Z,0.00
2023-02-27T01:13:14.101Z,0.00
2023-02-27T01:15:44.918Z,0.00
2023-02-27T01:18:16.144Z,0.00
2023-02-27T01:20:47.030Z,0.00
2023-02-27T01:23:18.072Z,0.00
2023-02-27T01:25:50.309Z,0.00
2023-02-27T01:28:23.847Z,0.00
2023-02-27T01:30:55.061Z,0.00
2023-02-27T01:33:25.890Z,-0.10
2023-02-27T01:35:56.867Z,-0.10
2023-02-27T01:38:27.761Z,-0.10
2023-02-27T01:41:00.646Z,-0.10
2023-02-27T01:43:34.098Z,0.00
2023-02-27T01:46:04.915Z,0.00
2023-02-27T01:48:39.449Z,0.00
2023-02-27T01:51:31.767Z,0.00
2023-02-27T01:54:03.500Z,0.00
2023-02-27T01:56:35.592Z,-0.10
2023-02-27T01:59:12.032Z,-0.10
2023-02-27T02:01:43.348Z,-0.10
2023-02-27T02:04:20.427Z,-0.10
2023-02-27T02:06:56.768Z,-0.10
2023-02-27T02:09:29.204Z,-0.10
2023-02-27T02:12:01.370Z,-0.10
2023-02-27T02:14:34.995Z,-0.10
2023-02-27T02:17:16.284Z,-0.10
2023-02-27T02:20:27.374Z,-0.10
2023-02-27T02:23:32.856Z,-0.10
2023-02-27T02:26:34.386Z,-0.20
2023-02-27T02:29:48.906Z,-0.20
2023-02-27T02:32:50.626Z,-0.50
2023-02-27T02:36:03.604Z,0.10
2023-02-27T02:38:50.344Z,-0.20
2023-02-27T02:41:30.489Z,-0.20
2023-02-27T02:44:07.828Z,-0.20
2023-02-27T02:46:48.566Z,-0.20
2023-02-27T02:49:28.495Z,0.10
2023-02-27T02:55:15.127Z,-0.20
2023-02-27T02:57:51.290Z,-0.30
2023-02-27T03:00:25.133Z,-0.30
2023-02-27T03:02:59.664Z,-0.40
2023-02-27T03:05:35.592Z,-0.40
2023-02-27T03:08:11.554Z,-0.40
2023-02-27T03:10:49.356Z,-0.40
2023-02-27T03:13:25.423Z,-0.40
2023-02-27T03:16:01.571Z,0.00
2023-02-27T03:18:37.645Z,-0.40
2023-02-27T03:21:14.966Z,-0.40
2023-02-27T03:23:47.993Z,-0.30
2023-02-27T03:26:27.722Z,-0.40
2023-02-27T03:29:06.757Z,-0.40
2023-02-27T03:31:43.839Z,-0.40
2023-02-27T03:34:20.194Z,-0.20
2023-02-27T03:36:57.703Z,-0.70
2023-02-27T03:39:37.880Z,-0.60
2023-02-27T03:42:20.351Z,-0.60
2023-02-27T03:44:58.830Z,-0.60
2023-02-27T03:47:30.556Z,-0.20
2023-02-27T03:50:01.582Z,-0.60
2023-02-27T03:52:33.819Z,-0.30
2023-02-27T03:55:21.103Z,-0.70
2023-02-27T03:57:59.129Z,-0.70
2023-02-27T04:00:38.633Z,-0.80
2023-02-27T04:06:29.010Z,-0.80
2023-02-27T04:09:07.445Z,-0.80
2023-02-27T04:11:47.107Z,-0.90
2023-02-27T04:14:36.108Z,-0.90
2023-02-27T04:17:23.286Z,-0.50
2023-02-27T04:20:13.504Z,-0.90
2023-02-27T04:22:52.006Z,-0.90
2023-02-27T04:25:47.463Z,-0.70
2023-02-27T04:28:23.981Z,-0.50
2023-02-27T04:31:08.560Z,-1.00
2023-02-27T04:33:48.057Z,-0.60
2023-02-27T04:36:25.999Z,-1.00
2023-02-27T04:39:02.895Z,-1.00
2023-02-27T04:41:38.734Z,-1.00
2023-02-27T04:47:06.391Z,-0.60
2023-02-27T04:49:41.017Z,-0.80
2023-02-27T04:52:19.417Z,-1.10
2023-02-27T04:54:55.690Z,-1.10
2023-02-27T04:57:32.100Z,-1.10
2023-02-27T05:00:09.301Z,-0.70
2023-02-27T05:05:50.845Z,-0.80
2023-02-27T05:08:27.226Z,-1.20
2023-02-27T05:11:05.605Z,-1.00
2023-02-27T05:13:43.011Z,-1.30
2023-02-27T05:16:22.505Z,-1.10
2023-02-27T05:18:56.639Z,-1.30
2023-02-27T05:21:33.975Z,-1.30
2023-02-27T05:24:34.112Z,-1.40
2023-02-27T05:27:19.179Z,-1.30
2023-02-27T05:29:53.018Z,-0.90
2023-02-27T05:32:37.640Z,-1.10
2023-02-27T05:35:17.014Z,-1.30
2023-02-27T05:37:52.686Z,-1.10
2023-02-27T05:40:26.973Z,-1.40
2023-02-27T05:43:03.901Z,-1.40
2023-02-27T05:45:50.937Z,-1.70
2023-02-27T05:48:27.615Z,-1.40
2023-02-27T05:54:03.172Z,-1.20
2023-02-27T05:56:36.581Z,-1.50
2023-02-27T05:59:14.504Z,-1.50
2023-02-27T06:01:46.455Z,-1.20
2023-02-27T06:04:17.513Z,-1.20
2023-02-27T06:06:59.153Z,-1.60
2023-02-27T06:09:30.283Z,-1.60
2023-02-27T06:12:02.685Z,-1.60
2023-02-27T06:14:36.585Z,-1.60
2023-02-27T06:17:07.625Z,-1.60
2023-02-27T06:19:38.373Z,-1.60
2023-02-27T06:22:12.286Z,-1.30
2023-02-27T06:24:43.222Z,-1.20
2023-02-27T06:27:14.016Z,-1.30
2023-02-27T06:30:07.410Z,-1.50
2023-02-27T06:32:38.478Z,-1.70
2023-02-27T06:35:13.830Z,-1.70
2023-02-27T06:37:47.390Z,-2.10
2023-02-27T06:40:19.177Z,-1.70
2023-02-27T06:42:50.046Z,-1.60
2023-02-27T06:45:21.402Z,-1.60
2023-02-27T06:47:55.107Z,-1.30
2023-02-27T06:50:25.833Z,-1.60
2023-02-27T06:52:59.141Z,-1.60
2023-02-27T06:55:30.164Z,-1.10
2023-02-27T06:58:00.929Z,-1.50
2023-02-27T07:00:32.087Z,-1.20
2023-02-27T07:03:05.057Z,-1.20
2023-02-27T07:05:38.389Z,-1.50
2023-02-27T07:08:12.373Z,-1.50
2023-02-27T07:10:51.960Z,-1.10
2023-02-27T07:13:23.282Z,-1.50
2023-02-27T07:15:58.042Z,-1.00
2023-02-27T07:18:29.035Z,-1.00
2023-02-27T07:20:59.903Z,-1.30
2023-02-27T07:23:33.228Z,-0.80
2023-02-27T07:26:03.985Z,-0.80
2023-02-27T07:28:34.858Z,-1.50
2023-02-27T07:31:05.783Z,-0.70
2023-02-27T07:33:36.596Z,-1.00
2023-02-27T07:36:07.904Z,-0.50
2023-02-27T07:38:41.249Z,-0.90
2023-02-27T07:41:28.221Z,-0.40
2023-02-27T07:44:00.565Z,-0.60
2023-02-27T07:46:34.226Z,-0.30
2023-02-27T07:49:05.187Z,0.00
2023-02-27T07:51:36.170Z,-0.40
2023-02-27T07:54:09.676Z,-0.30
2023-02-27T07:56:40.505Z,-0.20
2023-02-27T07:59:15.782Z,-0.10
2023-02-27T08:01:46.675Z,0.20
2023-02-27T08:04:17.405Z,0.00
2023-02-27T08:06:48.396Z,0.30
2023-02-27T08:09:21.954Z,0.10
2023-02-27T08:11:52.801Z,0.60
2023-02-27T08:14:23.591Z,0.40
2023-02-27T08:17:01.387Z,0.50
2023-02-27T08:19:32.117Z,0.20
2023-02-27T08:22:03.673Z,0.70
2023-02-27T08:24:37.003Z,0.80
2023-02-27T08:27:07.766Z,0.90
2023-02-27T08:29:38.869Z,1.00
2023-02-27T08:32:09.850Z,1.10
2023-02-27T08:34:40.921Z,1.50
2023-02-27T08:37:11.851Z,1.30
2023-02-27T08:39:45.311Z,1.40
2023-02-27T08:42:19.259Z,1.50
2023-02-27T08:44:50.519Z,1.60
2023-02-27T08:47:21.481Z,1.70
2023-02-27T08:49:52.283Z,1.80
2023-02-27T08:52:24.944Z,1.80
2023-02-27T08:54:58.539Z,2.00
2023-02-27T08:57:29.377Z,2.00
2023-02-27T09:00:00.253Z,2.10
2023-02-27T09:02:31.194Z,2.20
2023-02-27T09:05:02.163Z,2.30
2023-02-27T09:07:34.540Z,2.30
2023-02-27T09:10:12.306Z,2.50
2023-02-27T09:12:43.162Z,2.60
2023-02-27T09:15:15.375Z,2.80
2023-02-27T09:17:46.200Z,2.70
2023-02-27T09:20:17.236Z,2.70
2023-02-27T09:22:48.103Z,2.80
2023-02-27T09:25:21.569Z,2.90
2023-02-27T09:27:52.478Z,3.00
2023-02-27T09:30:23.481Z,3.20
2023-02-27T09:32:54.441Z,3.20
2023-02-27T09:35:25.611Z,3.40
2023-02-27T09:37:56.463Z,3.40
2023-02-27T09:40:32.225Z,3.40
2023-02-27T09:43:06.555Z,3.30
2023-02-27T09:45:39.389Z,3.30
2023-02-27T09:48:19.136Z,3.40
2023-02-27T09:50:52.672Z,3.30
2023-02-27T09:53:31.263Z,3.30
2023-02-27T09:56:10.084Z,3.30
2023-02-27T09:58:52.818Z,3.40
2023-02-27T10:01:26.489Z,3.70
2023-02-27T10:04:21.218Z,3.60
2023-02-27T10:06:54.937Z,3.70
2023-02-27T10:09:36.585Z,3.70
2023-02-27T10:12:22.360Z,3.80
2023-02-27T10:14:57.354Z,3.90
2023-02-27T10:17:42.504Z,3.90
2023-02-27T10:20:23.409Z,4.00
2023-02-27T10:22:57.025Z,4.00
2023-02-27T10:25:31.940Z,4.00
2023-02-27T10:28:17.426Z,4.10
2023-02-27T10:30:51.852Z,4.30
2023-02-27T10:33:30.094Z,4.40
2023-02-27T10:36:03.147Z,4.50
2023-02-27T10:38:37.476Z,4.40
2023-02-27T10:41:10.468Z,4.50
2023-02-27T10:43:46.702Z,4.50
2023-02-27T10:46:28.943Z,4.70
2023-02-27T10:49:05.512Z,4.90
2023-02-27T10:51:58.485Z,5.00
2023-02-27T10:54:29.419Z,4.90
2023-02-27T10:57:37.032Z,4.90
2023-02-27T11:00:33.640Z,5.00
2023-02-27T11:03:05.015Z,5.10
2023-02-27T11:05:48.019Z,5.20
2023-02-27T11:08:24.979Z,5.30
2023-02-27T11:10:59.102Z,5.60
2023-02-27T11:13:35.053Z,5.70
2023-02-27T11:16:22.313Z,5.70
2023-02-27T11:18:54.746Z,5.70
2023-02-27T11:21:29.142Z,5.60
2023-02-27T11:24:08.582Z,5.60
2023-02-27T11:26:41.942Z,5.80
2023-02-27T11:29:23.374Z,5.80
2023-02-27T11:32:00.433Z,6.00
2023-02-27T11:34:34.174Z,6.00
2023-02-27T11:37:08.225Z,6.00
2023-02-27T11:39:44.081Z,5.90
2023-02-27T11:42:19.990Z,6.00
2023-02-27T11:44:58.543Z,5.80
2023-02-27T11:47:44.294Z,6.30
2023-02-27T11:51:09.215Z,6.30
2023-02-27T11:54:20.075Z,6.50
2023-02-27T11:56:55.292Z,6.60
2023-02-27T12:02:58.906Z,6.70
2023-02-27T12:05:33.141Z,6.60
2023-02-27T12:08:08.282Z,6.60
2023-02-27T12:10:48.396Z,6.50
2023-02-27T12:13:24.386Z,6.20
2023-02-27T12:16:01.147Z,6.00
2023-02-27T12:18:42.443Z,6.00
2023-02-27T12:21:16.307Z,5.80
2023-02-27T12:23:55.809Z,5.90
2023-02-27T12:26:34.168Z,5.90
2023-02-27T12:29:15.494Z,5.90
2023-02-27T12:31:53.137Z,6.00
2023-02-27T12:34:33.606Z,5.90
2023-02-27T12:37:12.434Z,5.80
2023-02-27T12:39:48.175Z,5.80
2023-02-27T12:42:45.508Z,5.70
2023-02-27T12:46:04.788Z,5.80
2023-02-27T12:48:49.210Z,5.80
2023-02-27T12:51:34.326Z,5.90
2023-02-27T12:54:20.409Z,6.10
2023-02-27T12:57:04.299Z,6.10
2023-02-27T12:59:51.556Z,6.20
2023-02-27T13:02:36.201Z,6.30
2023-02-27T13:05:18.281Z,6.30
2023-02-27T13:07:57.749Z,6.20
2023-02-27T13:10:36.346Z,6.10
2023-02-27T13:13:15.940Z,6.00
2023-02-27T13:16:08.276Z,6.10
2023-02-27T13:18:47.288Z,6.40
2023-02-27T13:21:47.001Z,6.50
2023-02-27T13:24:35.963Z,6.30
2023-02-27T13:27:22.288Z,6.80
2023-02-27T13:30:08.524Z,6.50
2023-02-27T13:32:58.057Z,6.80
2023-02-27T13:35:36.257Z,6.90
2023-02-27T13:38:37.309Z,6.90
2023-02-27T13:41:56.668Z,6.70
2023-02-27T13:45:00.778Z,6.60
2023-02-27T13:47:52.422Z,6.50
2023-02-27T13:50:51.570Z,6.50
2023-02-27T13:53:25.971Z,6.50
2023-02-27T13:56:23.763Z,6.30
2023-02-27T13:58:57.573Z,6.10
2023-02-27T14:01:34.988Z,5.90
2023-02-27T14:04:09.297Z,5.80
2023-02-27T14:06:49.177Z,5.80
2023-02-27T14:09:23.796Z,6.00
2023-02-27T14:11:58.028Z,6.00
2023-02-27T14:14:47.847Z,6.10
2023-02-27T14:17:45.002Z,6.10
2023-02-27T14:20:37.636Z,6.20
2023-02-27T14:23:23.280Z,6.20
2023-02-27T14:25:57.038Z,6.00
2023-02-27T14:28:36.690Z,6.00
2023-02-27T14:31:09.982Z,6.10
2023-02-27T14:33:48.513Z,6.20
2023-02-27T14:36:23.624Z,6.30
2023-02-27T14:38:59.249Z,6.70
2023-02-27T14:41:41.357Z,6.50
2023-02-27T14:44:21.818Z,6.30
2023-02-27T14:46:53.956Z,6.30
2023-02-27T14:49:30.895Z,6.20
2023-02-27T14:52:27.631Z,6.20
2023-02-27T14:55:15.044Z,6.10
2023-02-27T14:58:01.826Z,5.90
2023-02-27T15:00:41.110Z,5.90
2023-02-27T15:03:24.171Z,5.90
2023-02-27T15:06:01.656Z,5.80
2023-02-27T15:08:38.196Z,5.80
2023-02-27T15:11:09.746Z,5.90
2023-02-27T15:13:42.428Z,5.90
2023-02-27T15:16:37.641Z,6.00
2023-02-27T15:19:19.915Z,6.10
2023-02-27T15:21:54.805Z,6.60
2023-02-27T15:27:40.781Z,6.30
2023-02-27T15:30:23.663Z,6.20
2023-02-27T15:32:55.883Z,6.30
2023-02-27T15:35:30.571Z,6.20
2023-02-27T15:38:04.428Z,6.20
2023-02-27T15:40:37.450Z,6.20
2023-02-27T15:43:09.122Z,6.20
2023-02-27T15:45:41.606Z,5.80
2023-02-27T15:48:15.460Z,5.70
2023-02-27T15:50:49.247Z,5.80
2023-02-27T15:53:27.659Z,5.80
2023-02-27T15:56:00.998Z,5.90
2023-02-27T15:58:34.308Z,5.90
2023-02-27T16:01:08.352Z,5.90
2023-02-27T16:03:41.470Z,6.10
2023-02-27T16:06:14.710Z,6.60
2023-02-27T16:08:50.855Z,6.20
2023-02-27T16:11:22.431Z,6.20
2023-02-27T16:13:54.326Z,6.20
2023-02-27T16:16:31.814Z,6.10
2023-02-27T16:19:05.404Z,6.00
2023-02-27T16:21:36.296Z,5.90
2023-02-27T16:24:33.615Z,5.90
2023-02-27T16:27:04.606Z,5.80
2023-02-27T16:29:46.317Z,5.60
2023-02-27T16:32:31.300Z,5.50
2023-02-27T16:35:08.251Z,5.00
2023-02-27T16:37:41.233Z,5.40
2023-02-27T16:40:19.009Z,5.30
2023-02-27T16:42:50.324Z,5.80
2023-02-27T16:45:24.248Z,5.20
2023-02-27T16:47:56.972Z,5.10
2023-02-27T16:50:31.654Z,5.00
2023-02-27T16:53:03.421Z,5.00
2023-02-27T16:55:58.167Z,5.00
2023-02-27T16:58:30.903Z,4.90
2023-02-27T17:01:03.949Z,5.30
2023-02-27T17:03:35.593Z,4.80
2023-02-27T17:06:09.709Z,4.80
2023-02-27T17:08:45.333Z,4.80
2023-02-27T17:11:29.290Z,4.70
2023-02-27T17:14:13.030Z,4.70
2023-02-27T17:17:05.395Z,4.60
2023-02-27T17:19:36.748Z,4.60
2023-02-27T17:22:10.720Z,4.60
2023-02-27T17:24:41.910Z,4.50
2023-02-27T17:27:15.422Z,4.50
2023-02-27T17:29:48.766Z,4.40
2023-02-27T17:32:22.247Z,4.40
2023-02-27T17:34:55.931Z,4.40
2023-02-27T17:37:27.191Z,4.40
2023-02-27T17:39:58.317Z,4.10
2023-02-27T17:42:29.184Z,4.20
2023-02-27T17:45:01.284Z,4.20
2023-02-27T17:47:35.142Z,4.20
2023-02-27T17:50:06.827Z,4.20
2023-02-27T17:52:41.451Z,4.20
2023-02-27T17:55:15.859Z,4.20
2023-02-27T17:57:49.369Z,4.10
2023-02-27T18:00:21.082Z,4.10
2023-02-27T18:02:54.898Z,4.10
2023-02-27T18:05:25.921Z,4.20
2023-02-27T18:07:56.740Z,4.20
2023-02-27T18:10:27.639Z,4.20
2023-02-27T18:12:58.774Z,4.10
2023-02-27T18:15:29.687Z,4.10
2023-02-27T18:18:03.081Z,4.10
2023-02-27T18:20:34.093Z,4.00
2023-02-27T18:23:05.012Z,4.00
2023-02-27T18:25:36.092Z,3.90
2023-02-27T18:28:07.395Z,3.80
2023-02-27T18:30:41.890Z,3.80
2023-02-27T18:33:15.503Z,3.70
2023-02-27T18:35:46.652Z,3.70
2023-02-27T18:38:17.657Z,3.60
2023-02-27T18:40:55.651Z,3.60
2023-02-27T18:43:27.109Z,3.60
2023-02-27T18:45:58.064Z,3.60
2023-02-27T18:48:31.728Z,3.70
2023-02-27T18:51:04.982Z,3.80
2023-02-27T18:53:37.507Z,3.90
2023-02-27T18:56:11.311Z,3.90
2023-02-27T18:58:42.437Z,3.90
2023-02-27T19:01:37.789Z,3.90
2023-02-27T19:04:14.499Z,4.00
2023-02-27T19:06:46.053Z,4.00
2023-02-27T19:09:20.412Z,4.00
2023-02-27T19:11:52.522Z,4.00
2023-02-27T19:14:41.141Z,4.00
2023-02-27T19:17:11.933Z,4.00
2023-02-27T19:19:47.607Z,4.00
2023-02-27T19:22:19.026Z,4.10
2023-02-27T19:24:49.802Z,4.00
2023-02-27T19:27:20.780Z,4.10
2023-02-27T19:29:51.793Z,4.20
2023-02-27T19:32:22.753Z,4.10
2023-02-27T19:34:58.360Z,4.10
2023-02-27T19:37:29.128Z,4.00
2023-02-27T19:40:00.086Z,4.10
2023-02-27T19:42:31.510Z,4.00
2023-02-27T19:45:02.606Z,4.00
2023-02-27T19:47:33.795Z,4.00
2023-02-27T19:50:08.359Z,3.90
2023-02-27T19:52:39.399Z,3.90
2023-02-27T19:55:11.491Z,3.80
2023-02-27T19:57:42.518Z,3.80
2023-02-27T20:00:15.751Z,3.70
2023-02-27T20:02:46.894Z,3.70
2023-02-27T20:05:21.013Z,3.60
2023-02-27T20:07:53.357Z,3.60
2023-02-27T20:10:24.324Z,3.60
2023-02-27T20:12:55.098Z,3.50
2023-02-27T20:15:26.158Z,3.50
2023-02-27T20:17:57.239Z,3.50
2023-02-27T20:20:32.056Z,3.50
2023-02-27T20:23:04.757Z,3.60
2023-02-27T20:25:35.708Z,3.50
2023-02-27T20:28:06.816Z,3.40
2023-02-27T20:30:37.643Z,3.50
2023-02-27T20:33:08.396Z,3.40
2023-02-27T20:35:43.263Z,3.40
2023-02-27T20:38:16.459Z,3.40
2023-02-27T20:40:47.220Z,3.30
2023-02-27T20:43:17.961Z,3.20
2023-02-27T20:45:48.830Z,3.20
2023-02-27T20:48:19.816Z,3.20
2023-02-27T20:50:53.195Z,3.10
2023-02-27T20:53:26.240Z,3.10
2023-02-27T20:55:57.099Z,3.00
2023-02-27T20:58:29.958Z,2.90
2023-02-27T21:01:04.151Z,2.90
2023-02-27T21:03:38.995Z,2.80
2023-02-27T21:06:14.890Z,2.80
2023-02-27T21:08:47.740Z,2.80
2023-02-27T21:11:20.644Z,2.70
2023-02-27T21:13:51.841Z,2.70
2023-02-27T21:16:22.960Z,2.60
2023-02-27T21:18:54.035Z,2.60
2023-02-27T21:21:30.661Z,2.50
2023-02-27T21:24:02.585Z,2.50
2023-02-27T21:26:35.561Z,2.40
2023-02-27T21:29:08.736Z,2.30
2023-02-27T21:31:43.837Z,2.20
2023-02-27T21:34:16.931Z,2.10
2023-02-27T21:36:54.271Z,2.10
2023-02-27T21:39:28.140Z,2.00
2023-02-27T21:41:59.494Z,2.00
2023-02-27T21:44:31.891Z,2.00
2023-02-27T21:47:10.193Z,1.90
2023-02-27T21:49:42.453Z,1.90
2023-02-27T21:52:16.146Z,1.90
2023-02-27T21:54:47.150Z,1.80
2023-02-27T21:57:18.071Z,1.80
2023-02-27T21:59:49.124Z,1.70
2023-02-27T22:02:27.194Z,2.10
2023-02-27T22:04:58.291Z,1.60
2023-02-27T22:07:32.050Z,1.60
2023-02-27T22:10:17.031Z,1.50
2023-02-27T22:12:50.870Z,1.50
2023-02-27T22:15:21.809Z,1.40
2023-02-27T22:17:54.684Z,1.40
2023-02-27T22:20:25.669Z,1.40
2023-02-27T22:22:59.543Z,1.40
2023-02-27T22:25:30.606Z,1.50
2023-02-27T22:28:02.284Z,1.50
2023-02-27T22:30:33.828Z,1.40
2023-02-27T22:33:07.912Z,1.40
2023-02-27T22:35:40.016Z,1.40
2023-02-27T22:38:13.519Z,1.40
2023-02-27T22:40:44.294Z,1.40
2023-02-27T22:43:16.670Z,1.40
2023-02-27T22:45:48.746Z,1.40
2023-02-27T22:48:19.501Z,1.40
2023-02-27T22:50:59.051Z,1.40
2023-02-27T22:53:33.137Z,1.50
2023-02-27T22:56:04.809Z,1.70
2023-02-27T22:58:37.912Z,1.50
2023-02-27T23:01:15.834Z,1.50
2023-02-27T23:03:48.222Z,1.50
2023-02-27T23:06:22.397Z,1.40
2023-02-27T23:08:56.080Z,1.50
2023-02-27T23:11:27.524Z,1.50
2023-02-27T23:13:58.994Z,1.50
2023-02-27T23:16:34.409Z,1.50
2023-02-27T23:19:06.060Z,1.50
2023-02-27T23:21:38.395Z,1.50
2023-02-27T23:24:22.142Z,1.60
2023-02-27T23:26:54.659Z,1.60
2023-02-27T23:29:28.514Z,1.60
2023-02-27T23:31:59.333Z,1.60
2023-02-27T23:34:40.530Z,1.60
2023-02-27T23:37:18.658Z,1.60
2023-02-27T23:39:52.396Z,1.60
2023-02-27T23:42:23.161Z,1.50
2023-02-27T23:44:53.849Z,1.50
2023-02-27T23:47:37.040Z,1.50
2023-02-27T23:50:12.421Z,1.50
2023-02-27T23:52:43.413Z,1.50
2023-02-27T23:55:16.992Z,1.40
2023-02-27T23:57:48.228Z,1.80
